Seven Oaks, Texas
Current Conditions -  °F | °C
As of 2:53 AM on Thursday 27 Nov 2014 (Local Time) from KLFK Reporting Station
Clear Clear  
Wind Chill: 46°   Ceiling: Unl
Heat Index: 46°   Visibility: 10mi
Dew Point: 35°   Wind: 3mph
Humidity: 66%   Direction: 340°NNW
Pressure: 30.39"   Gusts: NA
Location:  30.8176°N, 94.8703°W
Report Text: KLFK 270853Z AUTO 34003KT 10SM CLR 08/02 A3039 RMK AO2 SLP288 T00780017 53012
Loading
Personal Weather Stations






























Interactive Weather Map New forecast layout! Learn more

10-Day Weather Forecast

Advertisements
Track Severe Weather on mobile